Tiempo atmosférico en la estación meteorológica de Güeñes, Bizkaia (208 m.)



Fecha
DESCASC
Temp. máxima en grados centígrados (hora)
DESCASC
Temp. mínima en grados centígrados (hora)
DESCASC
Temp. media en grados centígrados
DESCASC
Racha de viento máxima en m/sg (hora)
DESCASC
Velocidad máxima media en intervalos de 10 minutos(hora)
DESCASC
Precipitaciones diarias en mm
DESCASC
Precipitaciones de 00:00 a 06:00 en mm
DESCASC
Precipitaciones de 06:00 a 12:00 en mm
DESCASC
Precipitaciones de 12:00 a 18:00 en mm
DESCASC
Precipitaciones de 18:00 a 24:00 en mm
DESCASC
16-04-2019 20.6 (17:50) 7.1 (08:40) 13.9 7.22 (16:20) 2.5 (14:50) 0.1 0 0.1 0 0
15-04-2019 25 (15:20) 9.1 (06:20) 17.1 14.44 (18:00) 8.61 (16:10) 9.6 0 0 8.3 1.3
14-04-2019 20.5 (16:30) 8.6 (00:00) 14.6 4.72 (14:30) 2.22 (16:40) 0 0 0 0 0
13-04-2019 22 (16:50) 1.4 (00:00) 11.7 5.28 (16:50) 2.78 (18:30) 0 0 0 0 0
12-04-2019 15 (16:10) 5.7 (00:00) 10.3 5.28 (14:20) 2.22 (15:00) 0 0 0 0 0
11-04-2019 10.7 (15:40) 6.1 (00:00) 8.4 7.78 (13:30) 4.44 (13:30) 5.5 0.2 3 2.3 0
10-04-2019 13.8 (15:30) 5.3 (00:00) 9.6 8.06 (16:40) 3.89 (20:50) 1 0 0 0 1
09-04-2019 16.6 (14:30) 3.6 (00:00) 10.1 11.67 (12:20) 6.39 (12:40) 10.3 0 0 5.1 5.2
08-04-2019 13.1 (14:40) 7.8 (00:00) 10.5 7.78 (01:40) 2.78 (12:00) 1.8 0 1.4 0.4 0
07-04-2019 15.3 (17:20) 5.2 (00:00) 10.3 13.61 (22:10) 8.06 (22:20) 0.4 0.3 0.1 0 0
06-04-2019 14.9 (16:40) 3.9 (00:00) 9.4 13.89 (14:00) 7.22 (12:20) 2.2 0 0 0.9 1.3
05-04-2019 14.2 (15:20) 6.7 (00:00) 10.4 11.94 (11:40) 5 (06:30) 0 0 0 0 0
04-04-2019 15.1 (16:10) 1.8 (00:00) 8.5 12.22 (17:00) 6.94 (17:30) 5.1 2.9 2.2 0 0
03-04-2019 9.2 (13:00) 2.4 (00:00) 5.8 16.11 (19:10) 9.17 (13:20) 8.3 0.1 1 3.6 3.6
02-04-2019 16.3 (14:30) 5.5 (00:00) 10.9 8.33 (16:20) 4.44 (18:10) 0.4 0 0 0 0.4
01-04-2019 15.9 (15:10) 8.8 (00:00) 12.3 9.17 (03:10) 2.78 (03:30) 0.3 0.3 0 0 0
31-03-2019 20.8 (16:00) 4.4 (00:00) 12.6 6.67 (16:20) 2.78 (15:20) 0 0 0 0 0
30-03-2019 21.6 (17:00) 9.5 (00:00) 15.6 7.5 (06:30) 4.17 (03:50) 0 0 0 0 0
29-03-2019 21.5 (16:00) 0.7 (00:00) 11.1 6.94 (17:50) 3.33 (17:50) 0 0 0 0 0
28-03-2019 15 (15:50) 3.2 (00:00) 9.1 6.11 (15:50) 3.33 (17:30) 0 0 0 0 0
27-03-2019 14.3 (13:20) 0.8 (00:00) 7.6 8.06 (13:50) 5.28 (14:10) 0 0 0 0 0
26-03-2019 13.3 (13:50) 5.7 (00:00) 9.5 7.5 (13:20) 3.89 (14:10) 0 0 0 0 0
25-03-2019 12.8 (14:00) 6.8 (00:00) 9.8 8.06 (16:40) 4.44 (16:40) 0 0 0 0 0
24-03-2019 20.4 (14:50) 3.7 (00:00) 12 6.39 (17:40) 3.61 (17:30) 0 0 0 0 0
23-03-2019 21.3 (15:10) 2.4 (00:00) 11.8 6.39 (16:50) 2.5 (18:40) 0 0 0 0 0
22-03-2019 20.2 (15:50) 1.1 (00:00) 10.7 7.5 (17:00) 3.33 (17:00) 0 0 0 0 0
21-03-2019 13.8 (15:00) 3.1 (00:00) 8.5 5.28 (15:10) 2.78 (17:00) 0 0 0 0 0
20-03-2019 12.1 (14:50) 4.2 (00:00) 8.2 8.61 (18:10) 4.17 (15:20) 3 2.8 0.2 0 0
19-03-2019 10.7 (13:40) 6.2 (00:00) 8.4 9.17 (09:10) 4.17 (08:00) 11.5 5 3.7 1.4 1.4

Gráficas

Temp. máximas Temp. mínimas Temp. medias Precipitaciones Rachas de viento máximas Velocidades máximas media en intervalos de 10 minutos

Datos horarios

Fecha y hora oficial Temperatura (ºC) Velocidad del viento (km/h) Dirección del viento Racha (km/h) Dirección de racha Precipitación (mm) Presión (hPa) Tendencia (hPa) Humedad (%)
2019-04-17 23:00:00 18.2 8 Sudeste 20 Este 0 985.8 2.9 48
2019-04-17 22:00:00 19.2 7 Sur 24 Sudoeste 0 985.4 2.5 44
2019-04-17 21:00:00 19.4 4 Sur 21 Sudeste 0 983.4 0.8 44
2019-04-17 20:00:00 19.9 8 Sudeste 22 Este 0 982.9 -0.6 43
2019-04-17 19:00:00 20.9 7 Sudeste 31 Sur 0 982.9 -0.9 43
2019-04-17 18:00:00 21.6 9 Sudeste 30 Sur 0 982.6 -1.7 41
2019-04-17 17:00:00 20.8 11 Sudeste 32 Sur 0 983.5 -0.9 41
2019-04-17 16:00:00 20.3 8 Sudeste 28 Este 0 983.8 -1.3 42
2019-04-17 15:00:00 19.1 5 Sudeste 32 Sur 0 984.3 -1.2 47
2019-04-17 14:00:00 18.4 12 Sudeste 39 Este 0 984.4 -1.7 48
2019-04-17 13:00:00 15.9 6 Este 19 Este 0 985.1 -0.7 53
2019-04-17 12:00:00 15 6 Este 20 Sur 0 985.5 -0.3 55
2019-04-17 11:00:00 14.3 4 Este 15 Este 0 986.1 0 54
2019-04-17 10:00:00 13.8 4 Este 33 Este 0 985.8 -0.2 55
2019-04-17 09:00:00 13.6 17 Este 35 Este 0 985.8 -0.5 55
2019-04-17 08:00:00 13.7 16 Sudeste 46 Sudeste 0 986.1 -0.2 52
2019-04-17 07:00:00 14.7 11 Sudeste 34 Sur 0 986 -0.4 48
2019-04-17 06:00:00 15.4 10 Sudeste 28 Sur 0 986.3 -1.2 46
2019-04-17 05:00:00 15.6 10 Sudeste 29 Este 0 986.3 -1.9 46
2019-04-17 04:00:00 16.2 7 Sudeste 22 Este 0 986.4 -2.1 46
2019-04-17 03:00:00 16.3 7 Este 18 Este 0 987.5 -1.5 47
2019-04-17 02:00:00 14.9 5 Este 16 Este 0 988.2 -1.2 52
2019-04-17 01:00:00 11.4 0 Calma 5 Nordeste 0 988.5 -1 81
2019-04-17 00:00:00 12.3 0 Calma 4 Nordeste 0 989 -0.2 77
2019-04-16 23:00:00 13.3 0 Calma 6 Este 0 989.4 0.2 69
2019-04-16 22:00:00 14.6 5 Este 15 Este 0 989.5 0.2 62
2019-04-16 21:00:00 15.7 4 Sudeste 12 Este 0 989.2 -0.6 56
2019-04-16 20:00:00 17.7 5 Este 10 Sudeste 0 989.2 -1.3 46
2019-04-16 19:00:00 19.9 4 Este 14 Este 0 989.3 -2.1 36
2019-04-16 18:00:00 20 4 Sudeste 21 Sudeste 0 989.8 -2.3 33
2019-04-16 17:00:00 20.1 4 Este 26 Este 0 990.5 -2.4 34
2019-04-16 16:00:00 19.1 4 Sudeste 17 Sur 0 991.4 -2.4 37
2019-04-16 15:00:00 18 6 Este 21 Este 0 992.1 -2.5 39
2019-04-16 14:00:00 16.7 9 Este 19 Nordeste 0 992.9 -2.1 42
2019-04-16 13:00:00 15.7 8 Este 15 Este 0 993.8 -1.6 44
2019-04-16 12:00:00 12.3 4 Sudeste 9 Nordeste 0 994.6 -0.6 82
2019-04-16 11:00:00 9.9 0 Calma 7 Este 0 995 -0.1 93
2019-04-16 10:00:00 7.7 2 Nordeste 5 Este 0 995.4 1.1 93
2019-04-16 09:00:00 7.2 0 Calma 6 Sudeste 0 995.2 1.1 93
2019-04-16 08:00:00 7.5 0 Calma 4 Sudoeste 0 995.1 0.8 93
2019-04-16 07:00:00 7.5 0 Calma 4 Sur 0.1 994.3 0.5 93
2019-04-16 06:00:00 7.5 0 Calma 3 Sur 0 994.1 0.5 93
2019-04-16 05:00:00 8 0 Calma 6 Este 0 994.3 0.6 93
2019-04-16 04:00:00 8.5 0 Calma 5 Este 0 993.8 0 92
2019-04-16 03:00:00 9 0 Calma 4 Sudoeste 0 993.6 0.5 90
2019-04-16 02:00:00 9.3 0 Calma 8 Oeste 0 993.7 1.4 88
2019-04-16 01:00:00 10.5 2 Noroeste 15 Oeste 0 993.8 2.4 83
2019-04-16 00:00:00 10.6 0 Calma 16 Oeste 0.1 993.1 3.4 85
2019-04-15 23:00:00 10.7 6 Oeste 22 Oeste 0 992.3 3.6 84
2019-04-15 22:00:00 11.3 5 Noroeste 12 Oeste 0.4 991.4 3.5 89
2019-04-15 21:00:00 11.6 0 Calma 19 Noroeste 0.5 989.7 2.9 85
2019-04-15 20:00:00 12 7 Noroeste 43 Noroeste 0 988.7 4.1 80
2019-04-15 19:00:00 11.8 20 Noroeste 44 Noroeste 0.3 987.9 4.8 80
2019-04-15 18:00:00 12.3 31 Noroeste 52 Noroeste 3.8 986.8 5.2 87
2019-04-15 17:00:00 13.7 12 Oeste 49 Noroeste 4.5 984.6 1.7 85
2019-04-15 16:00:00 18.8 16 Noroeste 43 Oeste 0 983.1 -0.3 52
2019-04-15 15:00:00 23.7 6 Este 21 Este 0 981.6 -1.9 41
2019-04-15 14:00:00 20 5 Este 13 Este 0 982.9 -1.8 50
2019-04-15 13:00:00 19.5 5 Este 15 Este 0 983.4 -2 49
2019-04-15 12:00:00 16.8 2 Norte 9 Este 0 983.5 -2.7 66
2019-04-15 11:00:00 14.4 2 Sudeste 10 Sur 0 984.7 -1.9 83
2019-04-15 10:00:00 12 0 Calma 6 Oeste 0 985.4 -1.2 91
2019-04-15 09:00:00 10.2 4 Este 8 Oeste 0 986.2 -1.1 91
2019-04-15 08:00:00 9.3 5 Oeste 8 Oeste 0 986.6 -1.6 91
2019-04-15 07:00:00 9.5 2 Noroeste 9 Sudoeste 0 986.6 -1.9 91
2019-04-15 06:00:00 9.4 3 Oeste 6 Noroeste 0 987.3 -1.8 91
2019-04-15 05:00:00 10.1 0 Calma 4 Oeste 0 988.2 -1.7 91
2019-04-15 04:00:00 10.3 0 Calma 4 Sur 0 988.5 -2 90
2019-04-15 03:00:00 10.7 3 Oeste 6 Nordeste 0 989.1 -1.7 88
2019-04-15 02:00:00 11.5 3 Oeste 6 Oeste 0 989.9 -1.1 85
2019-04-15 01:00:00 12.4 0 Calma 4 Nordeste 0 990.5 -0.4 81
2019-04-15 00:00:00 13.1 0 Calma 5 Oeste 0 990.8 0.1 76
2019-04-14 23:00:00 14.1 4 Oeste 6 Oeste 0 991 0.5 69
2019-04-14 22:00:00 15.3 2 Sudoeste 5 Este 0 990.9 0.5 62
2019-04-14 21:00:00 16.2 0 Calma 5 Este 0 990.7 -0.1 58
2019-04-14 20:00:00 17.9 0 Calma 15 Este 0 990.5 -1 53
2019-04-14 19:00:00 18.5 5 Sudeste 11 Oeste 0 990.4 -1.5 49
2019-04-14 18:00:00 19.7 5 Sur 14 Este 0 990.8 -1 50
2019-04-14 17:00:00 20.3 5 Oeste 16 Noroeste 0 991.5 -0.1 49
2019-04-14 16:00:00 19.3 5 Noroeste 12 Oeste 0 991.9 0.3 47
2019-04-14 15:00:00 19.6 4 Noroeste 17 Oeste 0 991.8 -0.1 46
2019-04-14 14:00:00 19.2 4 Noroeste 15 Noroeste 0 991.6 -0.5 45
2019-04-14 13:00:00 18.1 2 Nordeste 8 Sudoeste 0 991.6 -0.4 43
2019-04-14 12:00:00 16.3 0 Calma 6 Sur 0 991.9 0 46
2019-04-14 11:00:00 13.8 0 Calma 5 Sudoeste 0 992.1 0.2 61
2019-04-14 10:00:00 11.5 0 Calma 4 Sudoeste 0 992 0.6 71
2019-04-14 09:00:00 9.4 0 Calma 4 Oeste 0 991.9 -0.1 78
2019-04-14 08:00:00 8.7 2 Sudoeste 5 Oeste 0 991.9 0.2 76
2019-04-14 07:00:00 8.7 4 Este 6 Este 0 991.4 -0.4 73
2019-04-14 06:00:00 9.2 0 Calma 4 Norte 0 992 0.4 72
2019-04-14 05:00:00 9.7 0 Calma 4 Oeste 0 991.7 -0.4 68
2019-04-14 04:00:00 10.1 0 Calma 4 Oeste 0 991.8 -0.7 63
2019-04-14 03:00:00 10.3 0 Calma 4 Sudoeste 0 991.6 -1.3 59
2019-04-14 02:00:00 10.5 2 Oeste 3 Nordeste 0 992.1 -0.8 56
2019-04-14 01:00:00 10.9 0 Calma 4 Noroeste 0 992.5 -0.2 51
2019-04-14 00:00:00 11.8 0 Calma 3 Nordeste 0 992.9 0.7 46
2019-04-13 23:00:00 12.1 0 Calma 4 Nordeste 0 992.9 1.2 43
2019-04-13 22:00:00 13.7 0 Calma 5 Oeste 0 992.7 1.1 38
2019-04-13 21:00:00 15.4 0 Calma 12 Oeste 0 992.2 1.1 31
2019-04-13 20:00:00 17.9 8 Oeste 19 Sudoeste 0 991.7 0.7 28
2019-04-13 19:00:00 19.5 7 Oeste 19 Noroeste 0 991.6 0.1 25
2019-04-13 18:00:00 20.6 5 Norte 19 Nordeste 0 991.1 -1.1 23
2019-04-13 17:00:00 21.4 7 Nordeste 19 Norte 0 991 -1.8 23
2019-04-13 16:00:00 21.2 5 Noroeste 12 Norte 0 991.5 -2.1 21
2019-04-13 15:00:00 20.1 5 Norte 12 Nordeste 0 992.2 -2 21
2019-04-13 14:00:00 18.9 3 Nordeste 12 Nordeste 0 992.8 -1.8 24
2019-04-13 13:00:00 16.4 4 Nordeste 9 Nordeste 0 993.6 -1.6 37
2019-04-13 12:00:00 12.3 0 Calma 5 Sudoeste 0 994.2 -1.1 65
2019-04-13 11:00:00 7.2 0 Calma 6 Nordeste 0 994.6 -0.6 93
2019-04-13 10:00:00 3.4 0 Calma 6 Sudoeste 0 995.2 0.2 93
2019-04-13 09:00:00 1.9 2 Oeste 5 Sudoeste 0 995.3 0.4 93
2019-04-13 08:00:00 1.4 0 Calma 4 Sur 0 995.2 0.3 93
2019-04-13 07:00:00 1.9 2 Nordeste 4 Este 0 995 -0.1 93
2019-04-13 06:00:00 2 0 Calma 3 Noroeste 0 994.9 -0.6 92
2019-04-13 05:00:00 2.2 0 Calma 2 Nordeste 0 994.9 -1 91
2019-04-13 04:00:00 2.7 0 Calma 4 Noroeste 0 995.1 -0.8 91
2019-04-13 03:00:00 3.3 0 Calma 0 Calma 0 995.5 -0.1 90
2019-04-13 02:00:00 4 0 Calma 3 Nordeste 0 995.9 0.1 88
2019-04-13 01:00:00 5.2 0 Calma 0 Calma 0 995.9 0.3 84
2019-04-13 00:00:00 6.1 0 Calma 3 Este 0 995.6 0.3 81
2019-04-12 23:00:00 7.1 0 Calma 4 Noroeste 0 995.8 0.7 73
2019-04-12 22:00:00 8.1 2 Sudoeste 5 Noroeste 0 995.6 0.7 67
2019-04-12 21:00:00 9.9 2 Oeste 8 Noroeste 0 995.3 0.3 58
2019-04-12 20:00:00 12.3 0 Calma 15 Noroeste 0 995.1 0.1 48
2019-04-12 19:00:00 14 6 Noroeste 14 Norte 0 994.9 -0.6 46
2019-04-12 18:00:00 14.4 5 Norte 18 Nordeste 0 995 -1.2 43
2019-04-12 17:00:00 14.6 7 Nordeste 14 Norte 0 995 -1.6 43
2019-04-12 16:00:00 14.6 7 Norte 19 Norte 0 995.5 -1.3 43
2019-04-12 15:00:00 12.8 8 Nordeste 19 Norte 0 996.2 -0.7 47
2019-04-12 14:00:00 13.6 3 Norte 14 Nordeste 0 996.6 -0.6 52
2019-04-12 13:00:00 12.2 4 Sur 8 Sudeste 0 996.8 -0.2 65
2019-04-12 12:00:00 10.3 0 Calma 7 Nordeste 0 996.9 -0.1 81
2019-04-12 11:00:00 8 0 Calma 6 Sur 0 997.2 0.4 92
2019-04-12 10:00:00 7.2 0 Calma 4 Sudoeste 0 997 0.3 93
2019-04-12 09:00:00 6.1 0 Calma 8 Oeste 0 997 0.3 92
2019-04-12 08:00:00 5.8 5 Sudoeste 8 Sudoeste 0 996.8 0.2 92
2019-04-12 07:00:00 5.7 0 Calma 4 Noroeste 0 996.7 0 92
2019-04-12 06:00:00 6.1 0 Calma 5 Oeste 0 996.7 -0.6 92
2019-04-12 05:00:00 6.3 2 Oeste 3 Sudoeste 0 996.6 -0.9 92
2019-04-12 04:00:00 6.3 2 Oeste 5 Oeste 0 996.7 -1.2 92
2019-04-12 03:00:00 6.4 2 Este 6 Noroeste 0 997.3 -0.4 91
2019-04-12 02:00:00 6.7 6 Oeste 11 Oeste 0 997.5 -0.3 90
2019-04-12 01:00:00 8.2 0 Calma 5 Sudoeste 0 997.9 0.4 88
2019-04-12 00:00:00 8.5 0 Calma 9 Oeste 0 997.7 0.7 86
2019-04-11 23:00:00 8.7 5 Oeste 9 Oeste 0 997.8 1.3 86
2019-04-11 22:00:00 9 2 Sudoeste 9 Sudoeste 0 997.5 0.9 84
2019-04-11 21:00:00 9.1 6 Oeste 11 Sudoeste 0 997 0.7 84
2019-04-11 20:00:00 9.3 7 Oeste 15 Oeste 0 996.5 0.6 83
2019-04-11 19:00:00 9.9 9 Noroeste 20 Noroeste 0 996.6 0.5 76
2019-04-11 18:00:00 10.4 9 Oeste 20 Noroeste 0.2 996.3 0.1 80
2019-04-11 17:00:00 10.5 7 Noroeste 21 Oeste 0 995.9 -0.3 77
2019-04-11 16:00:00 10.1 14 Oeste 24 Oeste 0 996.1 0.1 79
2019-04-11 15:00:00 10.1 11 Oeste 18 Oeste 1.1 996.2 0.1 87
2019-04-11 14:00:00 9.6 9 Oeste 28 Oeste 1 996.2 0.4 85
2019-04-11 13:00:00 10 12 Oeste 21 Oeste 0 996 0.2 84
2019-04-11 12:00:00 9.1 7 Oeste 12 Oeste 0.5 996.1 0.7 91
2019-04-11 11:00:00 8.4 3 Sudoeste 6 Sudoeste 0 995.8 0.5 92
2019-04-11 10:00:00 7.4 0 Calma 5 Sudoeste 0.6 995.8 0.8 92
2019-04-11 09:00:00 7 0 Calma 4 Nordeste 1.4 995.4 0.4 92
2019-04-11 08:00:00 6.4 0 Calma 5 Sur 0.5 995.3 0.3 92
2019-04-11 07:00:00 6.5 0 Calma 3 Noroeste 0 995 0.1 91
2019-04-11 06:00:00 6.8 0 Calma 4 Este 0 995 0 91
2019-04-11 05:00:00 6.8 2 Este 5 Oeste 0 995 -0.1 90
2019-04-11 04:00:00 7 5 Oeste 12 Oeste 0 994.9 -0.3 89
2019-04-11 03:00:00 7.1 4 Noroeste 8 Noroeste 0.2 995 0 91
2019-04-11 02:00:00 7.3 3 Oeste 6 Oeste 0 995.1 0.3 91
2019-04-11 01:00:00 7.6 3 Sur 8 Oeste 0 995.2 0.6 89
2019-04-11 00:00:00 8.3 6 Oeste 15 Sudoeste 0 995 1.7 87
2019-04-10 23:00:00 8.6 6 Oeste 18 Norte 0.4 994.8 1.8 85
2019-04-10 22:00:00 9.3 10 Noroeste 16 Noroeste 0.6 994.6 2 74
2019-04-10 21:00:00 10.1 12 Noroeste 20 Noroeste 0 993.3 1.3 66
2019-04-10 20:00:00 11.2 9 Noroeste 22 Noroeste 0 993 1.4 63
2019-04-10 19:00:00 12.3 8 Noroeste 23 Norte 0 992.6 1.5 62
2019-04-10 18:00:00 12.3 9 Noroeste 26 Norte 0 992 1.1 56
2019-04-10 17:00:00 12.5 13 Norte 29 Norte 0 991.6 0.9 55
2019-04-10 16:00:00 12.3 12 Noroeste 28 Norte 0 991.1 0.5 53
2019-04-10 15:00:00 13.7 6 Norte 24 Norte 0 990.9 0.4 52
2019-04-10 14:00:00 12.7 7 Norte 22 Noroeste 0 990.7 0.4 54
2019-04-10 13:00:00 11.7 2 Norte 10 Nordeste 0 990.6 0.7 67
2019-04-10 12:00:00 9.6 4 Este 11 Nordeste 0 990.5 1 93
2019-04-10 11:00:00 7.3 0 Calma 4 Sur 0 990.3 1.7 93
2019-04-10 10:00:00 6.2 0 Calma 4 Sur 0 989.9 1.8 93
2019-04-10 09:00:00 5.8 0 Calma 3 Oeste 0 989.5 1.6 93
2019-04-10 08:00:00 5.4 2 Sudoeste 5 Oeste 0 988.6 0.6 93
2019-04-10 07:00:00 5.6 0 Calma 5 Nordeste 0 988.1 0.1 93
2019-04-10 06:00:00 5.6 3 Nordeste 9 Nordeste 0 987.9 0 93
2019-04-10 05:00:00 5.9 3 Este 5 Este 0 988 0.1 93
2019-04-10 04:00:00 6 4 Noroeste 10 Oeste 0 988 0 93
2019-04-10 03:00:00 5.5 2 Sudoeste 4 Sudoeste 0 987.9 0.1 93
2019-04-10 02:00:00 5.5 0 Calma 4 Este 0 987.9 0.2 93
2019-04-10 01:00:00 5.6 0 Calma 4 Este 0 988 0.5 93
2019-04-10 00:00:00 6 0 Calma 5 Sudoeste 0 987.8 0.7 92
2019-04-09 23:00:00 6.8 3 Este 6 Este 0 987.7 1.1 92
2019-04-09 22:00:00 7.5 3 Nordeste 6 Sur 0 987.5 0.6 92
2019-04-09 21:00:00 7.6 3 Sudeste 19 Este 0.1 987.1 0.3 92
2019-04-09 20:00:00 8.3 8 Este 14 Este 0 986.6 0.8 91
2019-04-09 19:00:00 8.3 0 Calma 11 Oeste 5.1 986.9 2 91
2019-04-09 18:00:00 8.6 9 Oeste 18 Sudoeste 4.9 986.8 2.8 89
2019-04-09 17:00:00 9.3 15 Oeste 32 Oeste 0.2 985.8 1.7 79
2019-04-09 16:00:00 11.2 11 Oeste 25 Norte 0 984.9 0.4 66
2019-04-09 15:00:00 14.2 9 Norte 25 Norte 0 984 -1.1 42
2019-04-09 14:00:00 16 6 Sudoeste 28 Sur 0 984.1 -1.2 43
2019-04-09 13:00:00 14.8 11 Sudoeste 42 Sudoeste 0 984.5 -1 45
2019-04-09 12:00:00 13.5 12 Sudoeste 30 Sur 0 985.1 -0.3 47
2019-04-09 11:00:00 12.1 7 Sudoeste 35 Sudoeste 0 985.3 0.3 50
2019-04-09 10:00:00 10.8 6 Nordeste 18 Norte 0 985.5 0.5 58
2019-04-09 09:00:00 10 7 Sudeste 17 Este 0 985.4 0.1 62
2019-04-09 08:00:00 6.7 4 Nordeste 18 Este 0 985 -0.5 73
2019-04-09 07:00:00 5.5 4 Sudoeste 18 Sur 0 985 -0.7 94
2019-04-09 06:00:00 4.4 2 Oeste 8 Sudoeste 0 985.3 -0.9 93
2019-04-09 05:00:00 4.6 0 Calma 8 Oeste 0 985.5 -0.7 93
2019-04-09 04:00:00 4.9 0 Calma 4 Oeste 0 985.7 -0.6 92
2019-04-09 03:00:00 5.5 0 Calma 4 Sur 0 986.2 -0.5 92
2019-04-09 02:00:00 6.1 0 Calma 4 Noroeste 0 986.2 -0.8 90
2019-04-09 01:00:00 7 0 Calma 6 Sur 0 986.3 -0.8 87
2019-04-09 00:00:00 7.8 0 Calma 4 Nordeste 0 986.7 -0.3 84
2019-04-08 23:00:00 8.5 0 Calma 11 Este 0 987 0.1 80
2019-04-08 22:00:00 9.8 2 Este 6 Oeste 0 987.1 0.2 77
2019-04-08 21:00:00 10.3 3 Sur 6 Este 0 987 -0.4 70
2019-04-08 20:00:00 11.4 3 Sudoeste 6 Noroeste 0 986.9 -0.6 67
2019-04-08 19:00:00 11.8 3 Oeste 10 Oeste 0 986.9 -0.7 65
2019-04-08 18:00:00 11.2 2 Sudeste 10 Oeste 0 987.4 -0.3 69
2019-04-08 17:00:00 10.9 5 Noroeste 14 Este 0 987.5 -0.2 70
2019-04-08 16:00:00 11.7 2 Este 12 Este 0 987.6 0 73
2019-04-08 15:00:00 12.2 6 Este 14 Este 0 987.7 0 68
2019-04-08 14:00:00 12.3 3 Nordeste 10 Sur 0.2 987.7 0.6 73
2019-04-08 13:00:00 11.7 6 Sudoeste 12 Sudoeste 0.2 987.6 1 73
2019-04-08 12:00:00 11.1 10 Oeste 17 Oeste 0.3 987.7 1.5 81
2019-04-08 11:00:00 11.1 3 Oeste 14 Oeste 0.8 987.1 2.2 83
2019-04-08 10:00:00 10.7 0 Calma 8 Sudoeste 0 986.6 2.5 87
2019-04-08 09:00:00 9.4 5 Oeste 10 Oeste 0.3 986.2 2.2 82
2019-04-08 08:00:00 9.7 6 Este 11 Este 0 984.9 0.6 72
2019-04-08 07:00:00 9.9 4 Sur 9 Sur 0 984.1 0 69
2019-04-08 06:00:00 10.3 0 Calma 16 Sur 0 984 -0.2 64
2019-04-08 05:00:00 11.1 4 Sur 18 Oeste 0 984.3 -0.4 59
2019-04-08 04:00:00 10 6 Este 17 Sur 0 984.1 -0.9 59
2019-04-08 03:00:00 10.5 3 Sur 23 Noroeste 0 984.2 -1.2 56
2019-04-08 02:00:00 10.6 2 Nordeste 28 Sudoeste 0 984.7 -0.8 55
2019-04-08 01:00:00 11 9 Norte 23 Norte 0 985 -0.1 55
2019-04-08 00:00:00 11.2 4 Este 36 Sudoeste 0 985.4 1 52
2019-04-07 23:00:00 11.8 13 Sudoeste 49 Sudoeste 0 985.5 1.2 48
2019-04-07 22:00:00 13.5 23 Sudoeste 42 Sudoeste 0 985.1 0.9 43
2019-04-07 21:00:00 11 3 Nordeste 14 Nordeste 0 984.4 0.1 62
2019-04-07 20:00:00 12.4 7 Nordeste 12 Nordeste 0 984.3 -0.4 52
2019-04-07 19:00:00 14.2 6 Este 15 Sudeste 0 984.2 -0.7 42
2019-04-07 18:00:00 14.8 6 Este 19 Este 0 984.3 -1.3 40
2019-04-07 17:00:00 14.5 7 Nordeste 13 Sudeste 0 984.7 -0.9 39
2019-04-07 16:00:00 13.1 6 Norte 15 Norte 0 984.9 -0.7 41
2019-04-07 15:00:00 12.7 3 Sudoeste 10 Sudoeste 0 985.6 0.4 46
2019-04-07 14:00:00 12 4 Oeste 12 Oeste 0 985.6 0.8 50
2019-04-07 13:00:00 11.3 8 Sudoeste 18 Sudoeste 0 985.6 1.5 55
2019-04-07 12:00:00 10.2 7 Oeste 15 Sudoeste 0 985.2 1.8 62
2019-04-07 11:00:00 8.1 0 Calma 10 Noroeste 0 984.8 2.3 90
2019-04-07 10:00:00 6.8 0 Calma 8 Este 0 984.1 2.4 93
2019-04-07 09:00:00 5.8 0 Calma 5 Este 0 983.4 2.3 93
2019-04-07 08:00:00 5.6 0 Calma 6 Este 0 982.5 2.2 93
2019-04-07 07:00:00 5.6 2 Este 5 Sur 0.1 981.7 2 93
2019-04-07 06:00:00 5.6 0 Calma 3 Sur 0.2 981.1 1.6 93
2019-04-07 05:00:00 5.3 0 Calma 5 Este 0.1 980.3 1.1 93
2019-04-07 04:00:00 5.3 0 Calma 4 Sur 0 979.7 0.7 92
2019-04-07 03:00:00 5.4 3 Sur 5 Sudeste 0 979.5 1 92
2019-04-07 02:00:00 5.8 0 Calma 4 Noroeste 0 979.2 1.1 91
2019-04-07 01:00:00 5.8 0 Calma 4 Norte 0 979 1.9 91
2019-04-07 00:00:00 6 2 Sur 8 Noroeste 0.1 978.5 2.3 88
2019-04-06 23:00:00 6.5 10 Oeste 26 Noroeste 1 978.1 2.5 85
2019-04-06 22:00:00 6.9 5 Oeste 10 Oeste 0 977.1 2.8 85
2019-04-06 21:00:00 7.6 0 Calma 14 Noroeste 0.2 976.2 3.6 80
2019-04-06 20:00:00 8.8 9 Oeste 23 Oeste 0 975.6 3.3 69
2019-04-06 19:00:00 9.1 10 Oeste 41 Oeste 0 974.3 1.9 71
2019-04-06 18:00:00 11.9 6 Noroeste 21 Norte 0.8 972.6 0 63
2019-04-06 17:00:00 13.6 7 Sudoeste 28 Sudoeste 0.1 972.3 -0.7 37
2019-04-06 16:00:00 14.1 15 Sudoeste 45 Oeste 0 972.4 -0.5 36
2019-04-06 15:00:00 13.3 16 Sudoeste 41 Sudoeste 0 972.6 -1.1 36
2019-04-06 14:00:00 13.1 20 Sudoeste 50 Sudoeste 0 973 -0.9 41
2019-04-06 13:00:00 12 20 Sudoeste 48 Sudoeste 0 972.9 -1.1 42
2019-04-06 12:00:00 11.2 20 Sudoeste 42 Sudoeste 0 973.7 -0.5 45
2019-04-06 11:00:00 9.9 17 Sudoeste 33 Sudoeste 0 973.9 -0.1 48
2019-04-06 10:00:00 7.9 5 Oeste 21 Oeste 0 974 0.1 61
2019-04-06 09:00:00 6.6 0 Calma 10 Sudoeste 0 974.2 0 70
2019-04-06 08:00:00 4.9 2 Sur 11 Este 0 974 -0.1 72
2019-04-06 07:00:00 4.5 5 Sudeste 14 Este 0 973.9 -0.4 82
2019-04-06 06:00:00 4.4 2 Este 7 Nordeste 0 974.2 -0.3 91
2019-04-06 05:00:00 4.9 0 Calma 7 Sudoeste 0 974.1 -0.6 91
2019-04-06 04:00:00 5.6 0 Calma 4 Este 0 974.3 -0.2 91
2019-04-06 03:00:00 6.3 3 Nordeste 5 Sudoeste 0 974.5 0.5 91
2019-04-06 02:00:00 6.6 2 Oeste 5 Este 0 974.7 1.1 90
2019-04-06 01:00:00 6.8 0 Calma 8 Noroeste 0 974.5 1.2 89
2019-04-06 00:00:00 6.8 5 Oeste 15 Oeste 0 974 1.5 89
2019-04-05 23:00:00 7.4 0 Calma 4 Noroeste 0 973.6 1.1 86
2019-04-05 22:00:00 8.4 3 Norte 6 Norte 0 973.3 1.2 83
2019-04-05 21:00:00 9.5 0 Calma 8 Oeste 0 972.5 0.7 76
2019-04-05 20:00:00 10.3 0 Calma 7 Oeste 0 972.5 1.2 73
2019-04-05 19:00:00 11.2 2 Noroeste 9 Nordeste 0 972.1 0.6 69
2019-04-05 18:00:00 11.3 2 Norte 23 Norte 0 971.8 -0.1 69
2019-04-05 17:00:00 13.2 8 Sur 23 Sur 0 971.3 -0.7 42
2019-04-05 16:00:00 12.8 12 Sudeste 22 Sur 0 971.5 -0.7 41
2019-04-05 15:00:00 13.5 13 Sudoeste 28 Sudoeste 0 971.9 -0.1 43
2019-04-05 14:00:00 12.6 17 Oeste 30 Sudoeste 0 972 0 47
2019-04-05 13:00:00 12.5 3 Noroeste 33 Sur 0 972.2 0.2 48
2019-04-05 12:00:00 11.6 17 Sur 43 Sur 0 972 0.1 49
2019-04-05 11:00:00 10.4 5 Sudeste 26 Sur 0 972 0.1 52
2019-04-05 10:00:00 10.2 9 Sur 29 Sur 0 972 0.7 52
2019-04-05 09:00:00 9.9 8 Sudeste 31 Sur 0 971.9 0.7 51
2019-04-05 08:00:00 10.1 11 Sur 30 Sur 0 971.9 0.4 50
2019-04-05 07:00:00 10.3 8 Sur 41 Sur 0 971.3 -0.9 49
2019-04-05 06:00:00 9.9 14 Sur 26 Sur 0 971.2 -1.6 51
2019-04-05 05:00:00 9.6 3 Este 35 Sudoeste 0 971.5 -1.8 51
2019-04-05 04:00:00 9.5 9 Sudoeste 32 Sudoeste 0 972.2 -1.8 52
2019-04-05 03:00:00 9.5 11 Sur 31 Sur 0 972.8 -1.4 53
2019-04-05 02:00:00 9.1 3 Sur 25 Sur 0 973.3 -1.5 55
2019-04-05 01:00:00 8.9 15 Sur 32 Sur 0 974 -0.4 55
2019-04-05 00:00:00 9 8 Sudeste 26 Sudeste 0 974.2 0.5 51
2019-04-04 23:00:00 9.9 5 Sudoeste 37 Sudoeste 0 974.8 0.9 43
2019-04-04 22:00:00 11.7 6 Sudoeste 44 Sudoeste 0 974.4 0.7 34
2019-04-04 21:00:00 12.7 18 Sudoeste 34 Sudoeste 0 973.7 0 29
2019-04-04 20:00:00 13 19 Sudoeste 39 Sudoeste 0 973.9 -0.2 27
2019-04-04 19:00:00 13.6 18 Sudoeste 40 Sudoeste 0 973.7 -1.1 26
2019-04-04 18:00:00 13.7 23 Sudoeste 44 Sudoeste 0 973.7 -2.3 26
2019-04-04 17:00:00 13.9 22 Sudoeste 44 Sudoeste 0 974.1 -3.4 26
2019-04-04 16:00:00 14.2 7 Oeste 25 Sudoeste 0 974.8 -3.9 29
2019-04-04 15:00:00 13.7 4 Sudeste 21 Sur 0 976 -3.4 34
2019-04-04 14:00:00 11.8 5 Sudeste 28 Oeste 0 977.5 -2.1 38
2019-04-04 13:00:00 10.2 13 Oeste 27 Oeste 0 978.7 -1.2 46
2019-04-04 12:00:00 7 4 Nordeste 10 Este 0 979.4 -0.7 77
2019-04-04 11:00:00 4.7 0 Calma 9 Nordeste 0 979.6 -0.3 94
2019-04-04 10:00:00 3.5 2 Noroeste 8 Este 0.1 979.9 0 94
2019-04-04 09:00:00 2.6 2 Este 7 Nordeste 0.3 980.1 -0.1 94
2019-04-04 08:00:00 2.3 4 Este 8 Nordeste 0.6 979.9 0 94
2019-04-04 07:00:00 2.4 4 Este 8 Este 1.2 979.9 -0.4 94
2019-04-04 06:00:00 2.6 2 Sudoeste 5 Norte 1.4 980.2 -0.1 94
2019-04-04 05:00:00 2.5 0 Calma 9 Sudoeste 0.5 979.9 -1.3 94
2019-04-04 04:00:00 2 0 Calma 9 Este 0 980.3 -1.3 94
2019-04-04 03:00:00 2.3 6 Este 11 Nordeste 0.1 980.3 -2.2 94
2019-04-04 02:00:00 2.3 6 Este 10 Este 0.4 981.2 -1.6 94
2019-04-04 01:00:00 2.1 6 Este 10 Este 0.5 981.6 -1.2 94
2019-04-04 00:00:00 2.4 6 Este 8 Este 0.2 982.5 -0.4 93
2019-04-03 23:00:00 2.7 2 Este 13 Sudoeste 0.7 982.8 0.5 91
2019-04-03 22:00:00 2.8 4 Este 35 Oeste 2.5 982.8 0.5 88
2019-04-03 21:00:00 4.7 0 Calma 8 Sudeste 0 982.9 0.4 81
2019-04-03 20:00:00 5 2 Este 58 Oeste 0.2 982.3 -0.8 76
2019-04-03 19:00:00 6.2 14 Noroeste 32 Oeste 0 982.3 -0.9 69
2019-04-03 18:00:00 6.6 7 Noroeste 34 Oeste 0.1 982.5 -1.8 72
2019-04-03 17:00:00 5.1 12 Oeste 32 Sudoeste 0.2 983.1 -1.1 79
2019-04-03 16:00:00 4.6 3 Nordeste 35 Oeste 2.2 983.2 -0.4 85
2019-04-03 15:00:00 4.5 11 Norte 30 Norte 0.3 984.3 -0.7 80
2019-04-03 14:00:00 4.8 13 Oeste 55 Oeste 0.6 984.2 -1.1 81
2019-04-03 13:00:00 9.2 9 Oeste 33 Oeste 0.2 983.6 -1.7 69
2019-04-03 12:00:00 6 3 Norte 24 Oeste 0.2 985 -0.2 80
2019-04-03 11:00:00 5 24 Oeste 45 Oeste 0.2 985.3 0.2 82
2019-04-03 10:00:00 5 12 Oeste 27 Noroeste 0.5 985.3 0.1 84
2019-04-03 09:00:00 5.8 12 Oeste 25 Sudoeste 0.1 985.2 -0.4 80
2019-04-03 08:00:00 6.2 9 Sudoeste 19 Oeste 0 985.1 -1.2 78
2019-04-03 07:00:00 7.2 11 Oeste 29 Oeste 0 985.2 -1.8 72
2019-04-03 06:00:00 7.3 13 Oeste 29 Oeste 0 985.6 -2.3 77
2019-04-03 05:00:00 7.4 5 Sudoeste 15 Sudoeste 0 986.3 -2.5 82
2019-04-03 04:00:00 7.3 0 Calma 7 Sudoeste 0 987 -2.4 86
2019-04-03 03:00:00 7.5 0 Calma 14 Noroeste 0 987.9 -2.1 85
2019-04-03 02:00:00 7.6 8 Oeste 22 Oeste 0 988.8 -1.3 86
2019-04-03 01:00:00 8.1 6 Oeste 17 Sudoeste 0.1 989.4 -0.7 84
2019-04-03 00:00:00 8.4 7 Oeste 17 Oeste 0.1 990 0.1 87
2019-04-02 23:00:00 8.7 6 Oeste 21 Oeste 0 990.1 0.4 86
2019-04-02 22:00:00 9 7 Oeste 13 Oeste 0.1 990.1 0.3 84
2019-04-02 21:00:00 9.7 6 Oeste 16 Oeste 0.2 989.9 -0.2 80
2019-04-02 20:00:00 10.7 10 Oeste 28 Oeste 0 989.7 -0.5 66
2019-04-02 19:00:00 11.7 10 Noroeste 30 Noroeste 0 989.8 -0.7 59
2019-04-02 18:00:00 12.3 13 Noroeste 30 Oeste 0 990.1 -0.6 56
2019-04-02 17:00:00 13 9 Noroeste 30 Noroeste 0 990.2 -1.1 58
2019-04-02 16:00:00 13.3 12 Norte 25 Norte 0 990.5 -1.5 58
2019-04-02 15:00:00 14.5 10 Noroeste 22 Noroeste 0 990.7 -1.7 53
2019-04-02 14:00:00 15 11 Sudoeste 28 Oeste 0 991.3 -1.1 54
2019-04-02 13:00:00 13.5 11 Noroeste 20 Noroeste 0 992 -0.3 58
2019-04-02 12:00:00 12.7 5 Oeste 11 Oeste 0 992.4 0.7 66
2019-04-02 11:00:00 10 4 Este 10 Este 0 992.4 0.9 82
2019-04-02 10:00:00 6.6 4 Este 10 Oeste 0 992.3 1.2 93
2019-04-02 09:00:00 5.7 0 Calma 4 Nordeste 0 991.7 0.9 92
2019-04-02 08:00:00 5.7 0 Calma 5 Norte 0 991.5 0.6 92
2019-04-02 07:00:00 6.2 0 Calma 3 Norte 0 991.1 0 92
2019-04-02 06:00:00 6.8 0 Calma 3 Oeste 0 990.8 -0.4 92
2019-04-02 05:00:00 7.3 0 Calma 4 Este 0 990.9 -0.4 90
2019-04-02 04:00:00 8.2 4 Oeste 8 Oeste 0 991.1 -0.6 88
2019-04-02 03:00:00 9.4 0 Calma 5 Norte 0 991.2 -0.3 85
2019-04-02 02:00:00 10.5 0 Calma 4 Oeste 0 991.3 0.2 80
2019-04-02 01:00:00 11 3 Sudoeste 8 Oeste 0 991.7 1 77
2019-04-02 00:00:00 11.6 5 Oeste 9 Oeste 0 991.5 1.5 73
2019-04-01 23:00:00 12.1 5 Oeste 9 Oeste 0 991.1 1.6 66
2019-04-01 22:00:00 12.4 7 Oeste 14 Oeste 0 990.7 1.9 63
2019-04-01 21:00:00 12.5 7 Oeste 15 Sudoeste 0 990 1.3 61
2019-04-01 20:00:00 13.2 7 Oeste 14 Oeste 0 989.5 0.9 58
2019-04-01 19:00:00 14.7 0 Calma 9 Nordeste 0 988.8 0 54
2019-04-01 18:00:00 15.4 3 Noroeste 10 Noroeste 0 988.7 -0.4 52
2019-04-01 17:00:00 15.5 3 Norte 10 Este 0 988.6 -0.9 47
2019-04-01 16:00:00 15.7 3 Nordeste 15 Este 0 988.8 -1.2 46
2019-04-01 15:00:00 15.8 3 Sudeste 19 Oeste 0 989.1 -0.9 47
2019-04-01 14:00:00 14.2 3 Sur 19 Este 0 989.5 -0.4 51
2019-04-01 13:00:00 13.6 7 Sudeste 17 Este 0 990 0.2 55
2019-04-01 12:00:00 13.7 6 Sudeste 19 Sudoeste 0 990 0.3 54
2019-04-01 11:00:00 13.6 7 Sudeste 17 Este 0 989.9 0.5 57
2019-04-01 10:00:00 10.4 0 Calma 7 Este 0 989.8 0.8 85
2019-04-01 09:00:00 9.1 5 Este 6 Este 0 989.7 0.6 85
2019-04-01 08:00:00 9 0 Calma 5 Oeste 0 989.4 0.2 85
2019-04-01 07:00:00 9.2 2 Sudoeste 6 Sur 0 989 -0.5 82
2019-04-01 06:00:00 10.2 3 Oeste 8 Sur 0.3 989.1 -0.7 70
2019-04-01 05:00:00 11.2 3 Este 17 Sur 0 989.2 -0.4 61
2019-04-01 04:00:00 11.8 7 Sudeste 33 Sur 0 989.5 -0.3 57
2019-04-01 03:00:00 9.4 0 Calma 10 Sur 0 989.8 0.3 64
2019-04-01 02:00:00 9 4 Oeste 6 Oeste 0 989.6 0.1 63
2019-04-01 01:00:00 9.2 2 Sudoeste 4 Sudoeste 0 989.8 0.7 61
2019-04-01 00:00:00 9.8 3 Oeste 4 Oeste 0 989.5 1.1 57
2019-03-31 23:00:00 10.6 2 Oeste 8 Oeste 0 989.5 1.4 54
2019-03-31 22:00:00 11.3 6 Oeste 9 Oeste 0 989.1 1 51
2019-03-31 21:00:00 12.6 4 Sudoeste 13 Noroeste 0 988.4 0.8 48
2019-03-31 20:00:00 15.1 7 Noroeste 17 Norte 0 988.1 0.3 43
2019-03-31 19:00:00 16.6 8 Norte 20 Norte 0 988.1 -0.1 39
2019-03-31 18:00:00 19.3 8 Nordeste 24 Norte 0 987.6 -1.4 30
2019-03-31 17:00:00 19.3 8 Norte 24 Nordeste 0 987.8 -1.9 32
2019-03-31 16:00:00 20.4 6 Este 18 Este 0 988.2 -2.3 30
2019-03-31 15:00:00 19.4 4 Nordeste 17 Nordeste 0 989 -2 33
2019-03-31 14:00:00 19.6 5 Este 16 Este 0 989.7 -1.7 34
2019-03-31 13:00:00 17.3 4 Este 12 Este 0 990.5 -0.5 38
2019-03-31 12:00:00 15.3 4 Nordeste 9 Norte 0 991 -0.2 47
2019-03-31 11:00:00 10.9 2 Sudoeste 6 Sur 0 991.4 0.5 68
2019-03-31 10:00:00 7.8 0 Calma 3 Noroeste 0 991 0.2 77
2019-03-31 09:00:00 5.1 0 Calma 8 Sudoeste 0 991.2 0 86
2019-03-31 08:00:00 4.6 5 Sudoeste 8 Sudoeste 0 990.9 -0.9 87
2019-03-31 07:00:00 5.1 0 Calma 5 Oeste 0 990.8 -1.5 86
2019-03-31 06:00:00 5.6 0 Calma 6 Sudoeste 0 991.2 -1.4 83
2019-03-31 05:00:00 6.3 0 Calma 3 Oeste 0 991.8 -1.3 82
2019-03-31 03:00:00 7.8 0 Calma 4 Oeste 0 992.6 -0.8 74
2019-03-31 01:00:00 8.8 0 Calma 3 Nordeste 0 993.1 -0.2 69
2019-03-31 00:00:00 9.5 0 Calma 3 Oeste 0 993.2 0.3 65
2019-03-30 23:00:00 10.7 0 Calma 3 Oeste 0 993.4 1.4 60
2019-03-30 22:00:00 11.5 0 Calma 4 Sudoeste 0 993.3 1.8 54
2019-03-30 21:00:00 13.3 2 Norte 13 Oeste 0 992.9 1.6 51
2019-03-30 20:00:00 13.8 7 Oeste 14 Oeste 0 992 1.1 48
2019-03-30 19:00:00 16.5 9 Oeste 19 Oeste 0 991.5 0.2 40
2019-03-30 18:00:00 19 6 Sudoeste 16 Nordeste 0 991.3 -0.6 36
2019-03-30 17:00:00 21.5 4 Este 18 Este 0 990.9 -1.8 25
2019-03-30 16:00:00 21.2 9 Nordeste 18 Nordeste 0 991.3 -1.9 29
2019-03-30 15:00:00 20.9 9 Este 21 Este 0 991.9 -2.2 32
2019-03-30 14:00:00 19.9 9 Este 23 Este 0 992.7 -2.2 33
2019-03-30 13:00:00 18.6 10 Sudeste 24 Este 0 993.2 -2 36
2019-03-30 12:00:00 17.2 10 Sudeste 26 Este 0 994.1 -1.5 38
2019-03-30 11:00:00 15.3 3 Sur 22 Este 0 994.9 -0.5 41
2019-03-30 10:00:00 13.8 9 Sudeste 19 Este 0 995.2 0 43
2019-03-30 09:00:00 11.6 8 Sudeste 13 Este 0 995.6 0.6 47
2019-03-30 08:00:00 10.8 6 Este 18 Sur 0 995.4 0.5 46
2019-03-30 07:00:00 10.4 5 Este 27 Sur 0 995.2 0.6 45
2019-03-30 06:00:00 11 4 Este 22 Sur 0 995 0.1 44
2019-03-30 05:00:00 12.1 4 Sur 23 Sur 0 994.9 -0.1 41
2019-03-30 04:00:00 13.8 14 Sur 26 Sur 0 994.6 -0.5 38
2019-03-30 03:00:00 14 7 Sudeste 24 Sur 0 994.9 -0.2 38
2019-03-30 02:00:00 14.3 7 Sudeste 21 Sur 0 995 -0.2 40
2019-03-30 01:00:00 13.8 6 Este 14 Este 0 995.1 -0.2 43
2019-03-30 00:00:00 13.3 5 Este 12 Este 0 995.1 -0.1 46
2019-03-29 23:00:00 9.3 5 Oeste 7 Sudoeste 0 995.2 0.4 73
2019-03-29 22:00:00 10.3 0 Calma 4 Norte 0 995.3 1 70
2019-03-29 21:00:00 11.7 2 Norte 10 Nordeste 0 995.2 1.9 63
2019-03-29 20:00:00 12.9 4 Norte 10 Nordeste 0 994.8 1.2 55
2019-03-29 19:00:00 15.8 4 Oeste 17 Nordeste 0 994.3 0 41
2019-03-29 18:00:00 17.4 10 Nordeste 25 Nordeste 0 993.3 -1.9 32
2019-03-29 17:00:00 21.3 4 Este 19 Este 0 993.6 -2.5 26
2019-03-29 16:00:00 21.5 5 Sudeste 21 Sur 0 994.3 -2.6 27
2019-03-29 15:00:00 20.5 3 Sudeste 23 Este 0 995.2 -2.7 27
2019-03-29 14:00:00 19.6 4 Este 22 Sudeste 0 996.1 -2.8 29
2019-03-29 13:00:00 17.5 5 Noroeste 20 Este 0 996.9 -2.6 33
2019-03-29 12:00:00 15.9 8 Sudeste 19 Sudeste 0 997.9 -2 39
2019-03-29 11:00:00 12.4 3 Nordeste 9 Nordeste 0 998.9 -1.5 54
2019-03-29 10:00:00 6.5 0 Calma 6 Noroeste 0 999.5 -1 91
2019-03-29 09:00:00 3.2 0 Calma 5 Nordeste 0 999.9 -0.4 93
2019-03-29 08:00:00 1.7 0 Calma 6 Oeste 0 1000.4 -0.2 93
2019-03-29 07:00:00 1 0 Calma 4 Oeste 0 1000.5 -0.5 93
2019-03-29 06:00:00 1.4 0 Calma 4 Sudoeste 0 1000.3 -1.2 93
2019-03-29 05:00:00 1.6 4 Oeste 5 Noroeste 0 1000.6 -1.4 93
2019-03-29 04:00:00 2.2 0 Calma 5 Oeste 0 1001 -1.5 93
2019-03-29 03:00:00 2.8 2 Sudoeste 5 Sur 0 1001.5 -1.4 92
2019-03-29 02:00:00 3.6 0 Calma 4 Sur 0 1002 -1.2 91
2019-03-29 01:00:00 4.5 2 Sudoeste 4 Sudoeste 0 1002.5 -0.7 90
2019-03-29 00:00:00 5.1 0 Calma 4 Noroeste 0 1002.9 -0.5 87
2019-03-28 23:00:00 6.1 2 Sudoeste 4 Sur 0 1003.2 0.1 84
2019-03-28 22:00:00 7.5 0 Calma 5 Sur 0 1003.2 0.3 80
2019-03-28 21:00:00 8.4 0 Calma 8 Noroeste 0 1003.4 0.7 77
2019-03-28 20:00:00 9.3 4 Oeste 17 Noroeste 0 1003.1 0.3 68
2019-03-28 19:00:00 10.9 6 Oeste 18 Noroeste 0 1002.9 -0.1 58
2019-03-28 18:00:00 12.3 6 Norte 22 Noroeste 0 1002.7 -0.8 53
2019-03-28 17:00:00 13.8 6 Norte 19 Noroeste 0 1002.8 -1.2 48
2019-03-28 16:00:00 14.8 10 Noroeste 22 Noroeste 0 1003 -1.7 48
2019-03-28 15:00:00 14.5 4 Norte 19 Nordeste 0 1003.5 -1.8 47
2019-03-28 14:00:00 13.4 7 Norte 19 Nordeste 0 1004 -1.5 49
2019-03-28 13:00:00 13.5 7 Norte 20 Noroeste 0 1004.7 -1.2 49
2019-03-28 12:00:00 12.8 0 Calma 11 Noroeste 0 1005.3 -0.8 53
2019-03-28 11:00:00 11.6 3 Oeste 9 Oeste 0 1005.5 -0.2 65
2019-03-28 10:00:00 7.5 2 Noroeste 6 Oeste 0 1005.9 0.4 80
2019-03-28 09:00:00 4.6 0 Calma 5 Sudoeste 0 1006.1 0.9 91
2019-03-28 08:00:00 4 0 Calma 3 Oeste 0 1005.7 0.5 91
2019-03-28 07:00:00 3.5 0 Calma 6 Este 0 1005.5 0.4 91
2019-03-28 06:00:00 3.4 0 Calma 7 Oeste 0 1005.2 0.1 90
2019-03-28 05:00:00 4.1 0 Calma 3 Este 0 1005.2 -0.3 89
2019-03-28 04:00:00 4.2 3 Oeste 4 Oeste 0 1005.1 -0.7 88
2019-03-28 03:00:00 4.5 0 Calma 5 Sudoeste 0 1005.1 -0.8 87
2019-03-28 02:00:00 4.8 0 Calma 5 Oeste 0 1005.5 -0.3 87
2019-03-28 01:00:00 5.1 2 Norte 5 Oeste 0 1005.8 0.1 86
2019-03-28 00:00:00 5.3 4 Oeste 6 Oeste 0 1005.9 0.3 83
2019-03-27 23:00:00 5.7 2 Sudoeste 8 Sudoeste 0 1005.8 0.8 80
2019-03-27 22:00:00 6.5 5 Oeste 8 Oeste 0 1005.7 1.1 76
2019-03-27 21:00:00 7.5 5 Oeste 13 Oeste 0 1005.6 1.6 70
2019-03-27 20:00:00 8.4 7 Noroeste 21 Noroeste 0 1005 1.3 65
2019-03-27 19:00:00 9.4 12 Noroeste 27 Noroeste 0 1004.6 1.1 55
2019-03-27 18:00:00 10.7 18 Oeste 28 Noroeste 0 1004 0.4 53
2019-03-27 17:00:00 12 17 Noroeste 28 Oeste 0 1003.7 -0.1 48
2019-03-27 16:00:00 13.2 15 Noroeste 27 Noroeste 0 1003.5 -0.3 44
2019-03-27 15:00:00 13.6 17 Noroeste 29 Noroeste 0 1003.6 -0.5 42
2019-03-27 14:00:00 13.8 17 Noroeste 29 Oeste 0 1003.8 -0.4 44
2019-03-27 13:00:00 13.3 12 Noroeste 23 Noroeste 0 1003.8 -0.2 43
2019-03-27 12:00:00 12.9 8 Noroeste 22 Oeste 0 1004.1 0.3 50
2019-03-27 11:00:00 10.7 3 Oeste 7 Sudoeste 0 1004.2 0.5 61
2019-03-27 10:00:00 6.2 0 Calma 5 Sur 0 1004 1 90
2019-03-27 09:00:00 3.7 0 Calma 3 Este 0 1003.8 1 93
2019-03-27 08:00:00 0.8 2 Noroeste 4 Noroeste 0 1003.7 1.4 93
2019-03-27 07:00:00 1.4 0 Calma 3 Norte 0 1003 0.4 92
2019-03-27 06:00:00 1.8 2 Este 4 Este 0 1002.8 -0.1 92
2019-03-27 05:00:00 2.8 3 Oeste 4 Oeste 0 1002.3 -0.8 90
2019-03-27 04:00:00 3.3 0 Calma 3 Este 0 1002.6 -0.9 87
2019-03-27 03:00:00 3.8 0 Calma 5 Oeste 0 1002.9 -0.5 84
2019-03-27 02:00:00 4.8 2 Oeste 4 Oeste 0 1003.1 -0.2 80
2019-03-27 01:00:00 5.7 0 Calma 6 Sur 0 1003.5 0.4 76
2019-03-27 00:00:00 5.9 3 Sur 6 Sudoeste 0 1003.4 0.2 77
2019-03-26 23:00:00 6.5 4 Noroeste 4 Oeste 0 1003.3 0.6 73
2019-03-26 22:00:00 6.6 0 Calma 8 Noroeste 0 1003.1 0.7 73
2019-03-26 21:00:00 6.5 5 Oeste 9 Oeste 0 1003.2 1.1 71
2019-03-26 20:00:00 7.6 2 Sudoeste 12 Noroeste 0 1002.7 0.9 64
2019-03-26 19:00:00 9.6 6 Noroeste 22 Noroeste 0 1002.4 0.6 55
2019-03-26 18:00:00 10.4 9 Noroeste 20 Norte 0 1002.1 0.3 51
2019-03-26 17:00:00 11.5 7 Norte 22 Norte 0 1001.8 -0.6 47
2019-03-26 16:00:00 12.1 11 Noroeste 26 Noroeste 0 1001.8 -0.8 43
2019-03-26 15:00:00 12.8 12 Noroeste 27 Noroeste 0 1001.8 -1.2 42
2019-03-26 14:00:00 13 13 Noroeste 27 Nordeste 0 1002.4 -0.9 41
2019-03-26 13:00:00 12.7 8 Norte 24 Norte 0 1002.6 -0.8 33
2019-03-26 12:00:00 11.5 6 Norte 19 Nordeste 0 1003 -0.4 40
2019-03-26 11:00:00 10.1 10 Norte 19 Nordeste 0 1003.3 0.2 47
2019-03-26 10:00:00 9.2 2 Sur 16 Este 0 1003.4 0.7 53
2019-03-26 09:00:00 8.4 5 Este 15 Este 0 1003.4 1.2 55
2019-03-26 08:00:00 6.8 0 Calma 17 Nordeste 0 1003.1 0.9 63
2019-03-26 07:00:00 7 4 Nordeste 17 Este 0 1002.7 0.6 61
2019-03-26 06:00:00 7.7 6 Este 17 Este 0 1002.2 0.1 57
2019-03-26 05:00:00 8 7 Este 22 Este 0 1002.2 0 59
2019-03-26 04:00:00 8.2 6 Nordeste 21 Nordeste 0 1002.1 -0.4 62
2019-03-26 03:00:00 8.2 5 Nordeste 21 Este 0 1002.1 -0.8 67
2019-03-26 02:00:00 7.9 4 Nordeste 17 Nordeste 0 1002.2 -0.7 76
2019-03-26 01:00:00 7.8 9 Oeste 15 Oeste 0 1002.5 -0.5 77
2019-03-26 00:00:00 7.4 7 Oeste 11 Oeste 0 1002.9 0.2 78
2019-03-25 23:00:00 6.9 5 Sudoeste 8 Sudoeste 0 1002.9 0.5 74
2019-03-25 22:00:00 7.6 3 Sudoeste 10 Oeste 0 1003 0.8 70
2019-03-25 21:00:00 8.2 2 Norte 21 Noroeste 0 1002.7 0.7 66
2019-03-25 20:00:00 8.3 7 Noroeste 19 Noroeste 0 1002.4 0.4 62
2019-03-25 19:00:00 9.2 9 Noroeste 24 Noroeste 0 1002.2 -0.3 58
2019-03-25 18:00:00 10.6 12 Noroeste 29 Noroeste 0 1002 -0.5 54
2019-03-25 17:00:00 11.9 13 Noroeste 29 Oeste 0 1002 -1 54
2019-03-25 16:00:00 12.1 8 Noroeste 24 Nordeste 0 1002.5 -1.1 53
2019-03-25 15:00:00 11.6 6 Norte 27 Norte 0 1002.5 -1.4 54
2019-03-25 14:00:00 12.4 5 Noroeste 18 Oeste 0 1003 -1 53
2019-03-25 13:00:00 11 6 Norte 21 Noroeste 0 1003.6 -0.1 57
2019-03-25 12:00:00 11.1 5 Norte 14 Nordeste 0 1003.9 0.5 55
2019-03-25 11:00:00 10.8 6 Norte 18 Nordeste 0 1004 1.2 56
2019-03-25 10:00:00 10.5 5 Nordeste 17 Este 0 1003.7 1.6 60
2019-03-25 09:00:00 10 2 Nordeste 15 Nordeste 0 1003.4 1.5 66
2019-03-25 08:00:00 9.9 6 Norte 19 Norte 0 1002.8 0.9 73
2019-03-25 07:00:00 9.8 6 Norte 15 Norte 0 1002.1 0 81
2019-03-25 06:00:00 9.6 6 Oeste 11 Sudoeste 0 1001.9 -0.3 83
2019-03-25 05:00:00 9.5 4 Oeste 18 Oeste 0 1001.9 -0.4 83
2019-03-25 04:00:00 9.5 9 Noroeste 14 Noroeste 0 1002.1 -0.4 84
2019-03-25 03:00:00 9.1 2 Sudoeste 6 Oeste 0 1002.2 -0.3 85
2019-03-25 02:00:00 9.2 4 Oeste 6 Sudoeste 0 1002.3 -0.3 84
2019-03-25 01:00:00 9.7 3 Oeste 8 Oeste 0 1002.5 0 83
2019-03-25 00:00:00 9.5 6 Oeste 11 Sudoeste 0 1002.5 0.6 80
2019-03-24 23:00:00 9.2 6 Oeste 15 Oeste 0 1002.6 1.3 74
2019-03-24 22:00:00 10 0 Calma 4 Nordeste 0 1002.5 1.8 63
2019-03-24 21:00:00 10.9 0 Calma 8 Norte 0 1001.9 2 56
2019-03-24 20:00:00 12 4 Oeste 13 Noroeste 0 1001.3 1.8 52
2019-03-24 19:00:00 13.8 9 Oeste 21 Oeste 0 1000.7 1.2 51
2019-03-24 18:00:00 15.8 10 Noroeste 23 Noroeste 0 999.9 0.2 47
2019-03-24 17:00:00 18.1 5 Noroeste 19 Norte 0 999.5 -0.5 39
2019-03-24 16:00:00 18.8 8 Nordeste 22 Nordeste 0 999.5 -1.2 36
2019-03-24 15:00:00 19.8 8 Nordeste 21 Nordeste 0 999.7 -1.5 35
2019-03-24 14:00:00 19.6 10 Nordeste 22 Norte 0 1000 -1.4 35
2019-03-24 13:00:00 18.7 2 Norte 10 Norte 0 1000.7 -0.7 39
2019-03-24 12:00:00 16.7 0 Calma 7 Noroeste 0 1001.2 -0.3 43
2019-03-24 11:00:00 13 0 Calma 5 Noroeste 0 1001.4 0.3 60
2019-03-24 10:00:00 9.2 0 Calma 4 Sudoeste 0 1001.4 0.6 75
2019-03-24 09:00:00 6.1 0 Calma 2 Oeste 0 1001.5 1.1 89
2019-03-24 08:00:00 4.2 0 Calma 6 Oeste 0 1001.1 1 90
2019-03-24 07:00:00 4.2 0 Calma 4 Oeste 0 1000.8 1 88
2019-03-24 06:00:00 4.9 3 Oeste 8 Oeste 0 1000.4 0.5 87
2019-03-24 05:00:00 5.2 3 Oeste 4 Oeste 0 1000.1 -0.1 85
2019-03-24 04:00:00 6 0 Calma 5 Oeste 0 999.8 -0.6 82
2019-03-24 03:00:00 6.7 4 Oeste 5 Oeste 0 999.9 -0.7 80
2019-03-24 02:00:00 7.4 0 Calma 2 Noroeste 0 1000.2 -0.4 77
2019-03-24 01:00:00 8.5 0 Calma 4 Este 0 1000.4 0 73
2019-03-24 00:00:00 9.3 0 Calma 5 Nordeste 0 1000.6 0.7 64
2019-03-23 23:00:00 10.9 0 Calma 7 Oeste 0 1000.6 1.3 56
2019-03-23 22:00:00 11.8 4 Oeste 5 Oeste 0 1000.4 1.5 52
2019-03-23 21:00:00 13.1 2 Sudoeste 8 Nordeste 0 999.9 1.2 47
2019-03-23 20:00:00 15.1 4 Nordeste 10 Oeste 0 999.3 0.7 40
2019-03-23 19:00:00 16.7 7 Sudoeste 14 Sudoeste 0 998.9 0.2 37
2019-03-23 18:00:00 19 4 Nordeste 15 Norte 0 998.7 -0.5 33
2019-03-23 17:00:00 20 6 Nordeste 23 Nordeste 0 998.6 -1.4 32
2019-03-23 16:00:00 20.9 8 Nordeste 18 Norte 0 998.7 -2.1 29
2019-03-23 15:00:00 21.2 6 Nordeste 18 Nordeste 0 999.2 -2.2 30
2019-03-23 14:00:00 20.5 5 Este 12 Este 0 1000 -2.1 28
2019-03-23 13:00:00 18.9 4 Noroeste 11 Noroeste 0 1000.8 -1.9 33
2019-03-23 12:00:00 16.5 3 Norte 8 Nordeste 0 1001.4 -1.3 39
2019-03-23 11:00:00 13.2 0 Calma 7 Este 0 1002.1 -0.4 54
2019-03-23 10:00:00 8.7 0 Calma 5 Sudeste 0 1002.7 0.4 71
2019-03-23 09:00:00 4.8 0 Calma 3 Sudoeste 0 1002.7 0.8 83
2019-03-23 08:00:00 2.6 0 Calma 7 Este 0 1002.5 0.5 86
2019-03-23 07:00:00 2.6 0 Calma 4 Sudoeste 0 1002.3 -0.1 83
2019-03-23 06:00:00 3.2 0 Calma 7 Oeste 0 1001.9 -0.8 81
2019-03-23 05:00:00 3.4 4 Oeste 5 Oeste 0 1002 -0.9 79
2019-03-23 04:00:00 4.2 0 Calma 4 Este 0 1002.4 -0.3 74
2019-03-23 03:00:00 4.7 2 Oeste 4 Oeste 0 1002.7 -0.3 70
2019-03-23 02:00:00 5.6 0 Calma 2 Oeste 0 1002.9 -0.1 66
2019-03-23 01:00:00 6.3 0 Calma 3 Oeste 0 1002.7 -0.3 60
2019-03-23 00:00:00 7.1 0 Calma 4 Este 0 1003 0.6 56
2019-03-22 23:00:00 8.3 0 Calma 3 Nordeste 0 1003 1 48
2019-03-22 22:00:00 9.6 0 Calma 3 Este 0 1003 1.9 41
2019-03-22 21:00:00 11.4 3 Oeste 5 Sur 0 1002.4 1.8 35
2019-03-22 20:00:00 12.8 3 Sur 7 Sudoeste 0 1002 1.6 30
2019-03-22 19:00:00 15.1 4 Sur 19 Norte 0 1001.1 0.8 27
2019-03-22 18:00:00 17.6 4 Noroeste 24 Noroeste 0 1000.6 -0.2 26
2019-03-22 17:00:00 18.6 12 Noroeste 27 Noroeste 0 1000.4 -0.8 25
2019-03-22 16:00:00 20 8 Noroeste 17 Noroeste 0 1000.3 -1.5 26
2019-03-22 15:00:00 19.3 6 Nordeste 16 Nordeste 0 1000.8 -1.5 25
2019-03-22 14:00:00 18.3 3 Noroeste 19 Sudoeste 0 1001.2 -1.3 26
2019-03-22 13:00:00 17.4 6 Sudoeste 19 Sur 0 1001.8 -1 29
2019-03-22 12:00:00 15.1 0 Calma 16 Sudoeste 0 1002.3 -0.2 36
2019-03-22 11:00:00 12.8 7 Este 12 Nordeste 0 1002.5 0 46
2019-03-22 10:00:00 7.5 6 Este 10 Este 0 1002.8 0.7 87
2019-03-22 09:00:00 3.9 0 Calma 5 Norte 0 1002.5 0.7 93
2019-03-22 08:00:00 1.5 0 Calma 6 Nordeste 0 1002.5 0.8 93
2019-03-22 07:00:00 1.4 0 Calma 4 Oeste 0 1002.1 0.4 93
2019-03-22 06:00:00 1.5 0 Calma 5 Noroeste 0 1001.8 -0.3 92
2019-03-22 05:00:00 1.8 0 Calma 6 Oeste 0 1001.7 -0.8 92
2019-03-22 04:00:00 2.3 0 Calma 4 Noroeste 0 1001.7 -0.9 92
2019-03-22 03:00:00 3.2 0 Calma 3 Este 0 1002.1 -1 91
2019-03-22 02:00:00 3.6 0 Calma 3 Sudoeste 0 1002.5 -0.8 89
2019-03-22 01:00:00 4 0 Calma 2 Este 0 1002.6 -0.7 88
2019-03-22 00:00:00 4.9 2 Este 3 Este 0 1003.1 -0.1 84
2019-03-21 23:00:00 5.6 0 Calma 0 Calma 0 1003.3 0.4 80
2019-03-21 22:00:00 6.6 0 Calma 3 Sudoeste 0 1003.3 0.8 74
2019-03-21 21:00:00 7.5 0 Calma 7 Oeste 0 1003.2 0.9 68
2019-03-21 20:00:00 8.3 3 Sudoeste 16 Oeste 0 1002.9 0.5 62
2019-03-21 19:00:00 10.3 9 Oeste 18 Noroeste 0 1002.5 -0.1 55
2019-03-21 18:00:00 12.3 3 Norte 15 Nordeste 0 1002.3 -0.9 50
2019-03-21 17:00:00 11.9 10 Norte 19 Norte 0 1002.4 -1.4 51
2019-03-21 16:00:00 13.5 6 Norte 19 Norte 0 1002.6 -2.1 49
2019-03-21 15:00:00 13.5 7 Nordeste 17 Norte 0 1003.2 -2.1 49
2019-03-21 14:00:00 13 6 Norte 17 Norte 0 1003.8 -1.6 47
2019-03-21 13:00:00 12.5 7 Norte 15 Noroeste 0 1004.7 -0.9 44
2019-03-21 12:00:00 11 0 Calma 9 Nordeste 0 1005.3 -0.5 59
2019-03-21 11:00:00 9 0 Calma 6 Oeste 0 1005.4 -0.3 77
2019-03-21 10:00:00 5.3 0 Calma 4 Sur 0 1005.6 0.1 91
2019-03-21 09:00:00 4.6 0 Calma 4 Este 0 1005.8 0.4 91
2019-03-21 08:00:00 3.6 0 Calma 4 Oeste 0 1005.7 0.4 91
2019-03-21 07:00:00 3.5 0 Calma 6 Este 0 1005.5 0.3 91
2019-03-21 06:00:00 3.7 0 Calma 4 Este 0 1005.4 -0.1 91
2019-03-21 05:00:00 3.8 0 Calma 3 Este 0 1005.3 -0.8 90
2019-03-21 04:00:00 3.8 0 Calma 5 Sudoeste 0 1005.2 -1.5 90
2019-03-21 03:00:00 3.8 2 Sudoeste 5 Sudoeste 0 1005.5 -1.5 88
2019-03-21 02:00:00 3.7 3 Noroeste 5 Sudoeste 0 1006.1 -1.3 87
2019-03-21 01:00:00 3.8 3 Oeste 5 Noroeste 0 1006.7 -0.8 85
2019-03-21 00:00:00 4.4 0 Calma 5 Oeste 0 1007 -0.3 82
2019-03-20 23:00:00 5.2 0 Calma 4 Noroeste 0 1007.4 0.6 77
2019-03-20 22:00:00 5.9 2 Sudoeste 6 Sur 0 1007.5 1.2 70
2019-03-20 21:00:00 6.8 0 Calma 12 Norte 0 1007.3 0.9 62
2019-03-20 20:00:00 8.5 6 Norte 21 Norte 0 1006.8 0.7 55
2019-03-20 19:00:00 9.1 4 Nordeste 31 Nordeste 0 1006.3 0.3 51
2019-03-20 18:00:00 10.1 12 Nordeste 28 Norte 0 1006.4 0.3 43
2019-03-20 17:00:00 11 8 Nordeste 28 Este 0 1006.1 -0.5 40
2019-03-20 16:00:00 11.5 13 Nordeste 28 Norte 0 1006 -1.5 40
2019-03-20 15:00:00 11.7 11 Norte 28 Nordeste 0 1006.1 -1.8 42
2019-03-20 14:00:00 11.2 13 Norte 27 Noroeste 0 1006.6 -1.4 48
2019-03-20 13:00:00 10.8 10 Norte 21 Norte 0 1007.5 -0.2 54
2019-03-20 12:00:00 9.6 10 Norte 21 Norte 0 1007.9 0.4 65
2019-03-20 11:00:00 8.3 4 Sudoeste 6 Sur 0 1008 1.1 92
2019-03-20 10:00:00 7.9 2 Oeste 6 Oeste 0 1007.7 1.7 93
2019-03-20 09:00:00 6.7 4 Noroeste 6 Oeste 0 1007.5 1.8 93
2019-03-20 08:00:00 6.2 3 Oeste 6 Sudoeste 0.1 1006.9 1 93
2019-03-20 07:00:00 6 0 Calma 5 Sudoeste 0.1 1006 0 93
2019-03-20 06:00:00 6.3 2 Nordeste 12 Oeste 0.6 1005.7 -0.7 93
2019-03-20 05:00:00 6.6 2 Norte 7 Oeste 0.7 1005.9 -0.7 92
2019-03-20 04:00:00 6.5 5 Oeste 7 Oeste 0.2 1006 -0.8 92
2019-03-20 03:00:00 6.6 0 Calma 7 Este 0.7 1006.4 -0.6 92
2019-03-20 02:00:00 6.5 2 Este 5 Este 0.3 1006.6 -0.1 91
2019-03-20 01:00:00 6.8 0 Calma 6 Sudoeste 0.3 1006.8 0.5 91
2019-03-20 00:00:00 6.9 3 Sudoeste 6 Sur 0.6 1007 1.2 91
2019-03-19 23:00:00 7.1 2 Sudoeste 6 Noroeste 0 1006.7 1.3 91
2019-03-19 22:00:00 7.4 3 Sudoeste 6 Sur 0 1006.3 1.1 90
2019-03-19 21:00:00 7.4 2 Sur 13 Oeste 0.5 1005.8 1.1 89
2019-03-19 20:00:00 7.6 7 Oeste 10 Oeste 0 1005.4 1.1 86
2019-03-19 19:00:00 7.8 5 Oeste 13 Norte 0.3 1005.2 0.9 82
2019-03-19 18:00:00 9.2 4 Norte 17 Norte 0.1 1004.7 0.5 66
2019-03-19 17:00:00 9.5 6 Noroeste 23 Norte 0 1004.3 0.1 66
2019-03-19 16:00:00 9.3 8 Noroeste 21 Norte 0 1004.3 0.1 73
2019-03-19 15:00:00 9 11 Noroeste 24 Norte 1.1 1004.2 0.3 77
2019-03-19 14:00:00 10 5 Norte 23 Norte 0 1004.2 0.3 65
2019-03-19 13:00:00 9.4 9 Noroeste 27 Norte 0.2 1004.2 0.9 76
2019-03-19 12:00:00 10 10 Noroeste 22 Norte 0.1 1003.9 1.1 77
2019-03-19 11:00:00 8.8 5 Norte 26 Nordeste 0 1003.9 1.6 77
2019-03-19 10:00:00 8.7 6 Noroeste 33 Noroeste 0.6 1003.3 1.2 81
2019-03-19 09:00:00 7.7 12 Oeste 24 Oeste 1.8 1002.8 0.7 91
2019-03-19 08:00:00 7.3 15 Oeste 25 Oeste 0.3 1002.3 0 91
2019-03-19 07:00:00 6.9 14 Oeste 24 Oeste 0.9 1002.1 -0.3 92
2019-03-19 06:00:00 6.4 5 Oeste 9 Oeste 0.6 1002.1 -0.6 92
2019-03-19 05:00:00 6.3 4 Este 6 Sudoeste 1.4 1002.3 -1 91
2019-03-19 04:00:00 6.5 2 Oeste 17 Noroeste 1.4 1002.4 -0.8 91
2019-03-19 03:00:00 6.6 5 Noroeste 16 Noroeste 0.3 1002.7 -1 91
2019-03-19 02:00:00 6.5 5 Oeste 9 Oeste 0.9 1003.3 -0.7 91
2019-03-19 01:00:00 6.7 3 Este 7 Oeste 0.4 1003.2 -0.8 88
2019-03-19 00:00:00 6.8 2 Sudoeste 17 Oeste 0.2 1003.7 -0.2 88